createdAt,value
2018-01-19T00:01:46.115Z,3.17
2018-01-19T00:04:14.079Z,2.90
2018-01-19T00:06:42.093Z,2.50
2018-01-19T00:09:10.079Z,3.45
2018-01-19T00:11:39.174Z,2.60
2018-01-19T00:14:07.192Z,2.70
2018-01-19T00:16:35.196Z,2.70
2018-01-19T00:19:04.048Z,2.17
2018-01-19T00:21:32.049Z,1.92
2018-01-19T00:24:00.071Z,2.80
2018-01-19T00:26:28.079Z,1.80
2018-01-19T00:28:56.136Z,2.40
2018-01-19T00:31:24.148Z,2.00
2018-01-19T00:33:52.314Z,1.98
2018-01-19T00:36:20.308Z,1.37
2018-01-19T00:38:48.294Z,1.37
2018-01-19T00:41:16.290Z,1.10
2018-01-19T00:43:44.250Z,1.15
2018-01-19T00:46:12.272Z,1.70
2018-01-19T00:48:40.265Z,1.73
2018-01-19T00:51:08.230Z,1.35
2018-01-19T00:53:36.250Z,1.80
2018-01-19T00:56:04.224Z,1.90
2018-01-19T00:58:32.189Z,1.87
2018-01-19T01:01:00.171Z,1.30
2018-01-19T01:03:28.158Z,1.05
2018-01-19T01:05:56.160Z,1.02
2018-01-19T01:08:24.136Z,1.23
2018-01-19T01:10:52.134Z,1.02
2018-01-19T01:13:20.127Z,1.67
2018-01-19T01:15:48.120Z,0.85
2018-01-19T01:18:16.110Z,1.10
2018-01-19T01:20:44.094Z,1.75
2018-01-19T01:23:12.101Z,0.98
2018-01-19T01:25:41.086Z,1.05
2018-01-19T01:28:09.049Z,1.02
2018-01-19T01:30:37.090Z,0.80
2018-01-19T01:33:06.120Z,1.17
2018-01-19T01:35:34.096Z,0.60
2018-01-19T01:38:02.134Z,0.90
2018-01-19T01:40:30.107Z,1.00
2018-01-19T01:42:58.134Z,1.15
2018-01-19T01:45:26.126Z,0.60
2018-01-19T01:47:54.129Z,0.95
2018-01-19T01:50:22.094Z,0.90
2018-01-19T01:52:50.158Z,0.70
2018-01-19T01:55:18.155Z,0.80
2018-01-19T01:57:46.162Z,0.65
2018-01-19T02:00:14.171Z,0.90
2018-01-19T02:02:42.192Z,0.60
2018-01-19T02:05:10.166Z,0.40
2018-01-19T02:07:38.155Z,0.50
2018-01-19T02:10:06.148Z,0.57
2018-01-19T02:12:34.188Z,0.68
2018-01-19T02:15:02.255Z,0.50
2018-01-19T02:17:30.302Z,0.50
2018-01-19T02:19:58.328Z,0.37
2018-01-19T02:22:26.307Z,0.60
2018-01-19T02:24:54.300Z,0.85
2018-01-19T02:27:22.309Z,0.40
2018-01-19T02:29:50.324Z,0.40
2018-01-19T02:32:18.292Z,0.52
2018-01-19T02:34:46.262Z,0.40
2018-01-19T02:37:14.279Z,0.47
2018-01-19T02:39:42.272Z,0.50
2018-01-19T02:42:11.287Z,0.45
2018-01-19T02:44:39.274Z,0.30
2018-01-19T02:47:07.262Z,0.40
2018-01-19T02:49:35.289Z,0.30
2018-01-19T02:52:03.282Z,0.43
2018-01-19T02:54:31.274Z,0.60
2018-01-19T02:56:59.255Z,0.80
2018-01-19T02:59:27.253Z,0.30
2018-01-19T03:01:55.235Z,0.50
2018-01-19T03:04:23.276Z,0.30
2018-01-19T03:06:51.259Z,0.70
2018-01-19T03:09:25.367Z,0.37
2018-01-19T03:11:53.373Z,0.90
2018-01-19T03:14:21.356Z,0.80
2018-01-19T03:16:49.344Z,0.93
2018-01-19T03:19:17.362Z,0.65
2018-01-19T03:21:45.354Z,0.80
2018-01-19T03:24:13.332Z,0.50
2018-01-19T03:26:41.302Z,0.30
2018-01-19T03:29:09.283Z,0.40
2018-01-19T03:31:37.244Z,0.95
2018-01-19T03:34:05.243Z,0.47
2018-01-19T03:36:33.204Z,0.30
2018-01-19T03:39:01.224Z,0.40
2018-01-19T03:41:29.232Z,0.60
2018-01-19T03:43:57.220Z,0.40
2018-01-19T03:46:25.236Z,0.52
2018-01-19T03:48:53.241Z,0.50
2018-01-19T03:51:21.271Z,0.35
2018-01-19T03:53:49.308Z,0.40
2018-01-19T03:56:17.282Z,0.30
2018-01-19T03:58:45.350Z,0.37
2018-01-19T04:01:14.392Z,0.45
2018-01-19T04:03:42.402Z,0.50
2018-01-19T04:06:10.391Z,0.43
2018-01-19T04:08:38.352Z,0.50
2018-01-19T04:11:06.393Z,0.50
2018-01-19T04:13:34.376Z,0.40
2018-01-19T04:16:02.377Z,0.40
2018-01-19T04:18:30.420Z,0.65
2018-01-19T04:20:58.440Z,0.40
2018-01-19T04:23:26.488Z,1.35
2018-01-19T04:25:54.480Z,0.40
2018-01-19T04:28:22.438Z,1.40
2018-01-19T04:30:50.416Z,0.45
2018-01-19T04:33:19.496Z,0.30
2018-01-19T04:35:47.474Z,0.60
2018-01-19T04:38:15.471Z,0.52
2018-01-19T04:40:43.511Z,0.55
2018-01-19T04:43:11.510Z,0.50
2018-01-19T04:45:39.498Z,0.52
2018-01-19T04:48:07.519Z,1.00
2018-01-19T04:50:35.494Z,0.75
2018-01-19T04:53:03.464Z,0.82
2018-01-19T04:55:31.486Z,0.75
2018-01-19T04:57:59.453Z,0.75
2018-01-19T05:00:27.494Z,0.70
2018-01-19T05:02:55.555Z,0.95
2018-01-19T05:05:23.537Z,1.20
2018-01-19T05:07:51.550Z,1.00
2018-01-19T05:10:19.502Z,1.05
2018-01-19T05:12:47.503Z,1.40
2018-01-19T05:15:15.500Z,1.30
2018-01-19T05:17:43.573Z,1.10
2018-01-19T05:20:11.592Z,0.88
2018-01-19T05:22:39.544Z,1.40
2018-01-19T05:25:07.524Z,0.80
2018-01-19T05:27:35.522Z,1.20
2018-01-19T05:30:03.479Z,1.10
2018-01-19T05:32:31.485Z,0.95
2018-01-19T05:34:59.446Z,1.02
2018-01-19T05:37:27.429Z,1.25
2018-01-19T05:39:55.414Z,1.00
2018-01-19T05:42:23.390Z,1.02
2018-01-19T05:44:51.370Z,1.20
2018-01-19T05:47:19.418Z,1.40
2018-01-19T05:49:47.430Z,2.40
2018-01-19T05:52:15.425Z,1.70
2018-01-19T05:54:43.436Z,2.15
2018-01-19T05:57:11.432Z,1.73
2018-01-19T05:59:39.409Z,1.67
2018-01-19T06:02:07.410Z,1.45
2018-01-19T06:04:35.408Z,1.67
2018-01-19T06:07:03.400Z,1.70
2018-01-19T06:09:31.369Z,1.00
2018-01-19T06:11:59.409Z,1.15
2018-01-19T06:14:27.403Z,1.40
2018-01-19T06:16:55.379Z,1.50
2018-01-19T06:19:23.387Z,1.50
2018-01-19T06:21:51.375Z,0.80
2018-01-19T06:24:19.432Z,1.20
2018-01-19T06:26:47.408Z,1.10
2018-01-19T06:29:15.416Z,0.95
2018-01-19T06:31:43.432Z,0.70
2018-01-19T06:34:11.398Z,0.90
2018-01-19T06:36:39.398Z,1.17
2018-01-19T06:39:07.383Z,1.20
2018-01-19T06:41:35.427Z,1.00
2018-01-19T06:44:03.407Z,1.33
2018-01-19T06:46:31.496Z,0.85
2018-01-19T06:48:59.496Z,0.88
2018-01-19T06:51:27.483Z,0.70
2018-01-19T06:53:56.516Z,1.00
2018-01-19T06:56:24.579Z,0.93
2018-01-19T06:58:52.614Z,0.90
2018-01-19T07:01:20.623Z,1.20
2018-01-19T07:03:48.588Z,1.02
2018-01-19T07:06:16.612Z,1.23
2018-01-19T07:08:44.623Z,1.45
2018-01-19T07:11:12.648Z,1.25
2018-01-19T07:13:42.578Z,1.50
2018-01-19T07:16:11.698Z,1.20
2018-01-19T07:18:39.731Z,1.25
2018-01-19T07:21:07.751Z,1.05
2018-01-19T07:23:36.197Z,1.10
2018-01-19T07:26:04.320Z,1.33
2018-01-19T07:28:32.368Z,1.55
2018-01-19T07:31:00.367Z,1.83
2018-01-19T07:33:28.359Z,1.40
2018-01-19T07:35:56.330Z,1.75
2018-01-19T07:38:24.313Z,1.58
2018-01-19T07:40:52.324Z,1.80
2018-01-19T07:43:20.336Z,1.65
2018-01-19T07:45:48.371Z,2.10
2018-01-19T07:48:16.380Z,1.50
2018-01-19T07:50:44.377Z,1.67
2018-01-19T07:53:12.380Z,1.92
2018-01-19T07:55:40.355Z,1.58
2018-01-19T07:58:08.382Z,1.75
2018-01-19T08:00:36.362Z,1.48
2018-01-19T08:03:04.352Z,1.85
2018-01-19T08:05:32.344Z,2.10
2018-01-19T08:08:00.376Z,1.77
2018-01-19T08:10:28.348Z,2.15
2018-01-19T08:12:56.355Z,1.60
2018-01-19T08:15:24.402Z,2.08
2018-01-19T08:17:52.407Z,2.10
2018-01-19T08:20:20.397Z,1.37
2018-01-19T08:22:48.504Z,1.95
2018-01-19T08:25:16.482Z,2.72
2018-01-19T08:27:44.475Z,1.95
2018-01-19T08:30:12.517Z,2.30
2018-01-19T08:32:40.546Z,1.92
2018-01-19T08:35:08.558Z,1.98
2018-01-19T08:37:36.582Z,2.05
2018-01-19T08:40:04.571Z,2.40
2018-01-19T08:42:32.594Z,2.40
2018-01-19T08:45:00.621Z,1.80
2018-01-19T08:47:29.627Z,1.87
2018-01-19T08:49:57.642Z,1.95
2018-01-19T08:52:25.656Z,1.52
2018-01-19T08:54:53.653Z,1.60
2018-01-19T08:57:21.656Z,2.20
2018-01-19T08:59:49.708Z,1.70
2018-01-19T09:02:17.751Z,1.73
2018-01-19T09:04:45.944Z,1.95
2018-01-19T09:07:13.957Z,2.50
2018-01-19T09:09:41.945Z,1.30
2018-01-19T09:12:09.972Z,2.00
2018-01-19T09:14:37.959Z,2.00
2018-01-19T09:17:05.942Z,1.70
2018-01-19T09:19:33.982Z,2.00
2018-01-19T09:22:01.976Z,1.92
2018-01-19T09:24:29.986Z,1.33
2018-01-19T09:26:59.148Z,1.75
2018-01-19T09:29:27.138Z,1.27
2018-01-19T09:31:55.151Z,1.42
2018-01-19T09:34:23.158Z,1.52
2018-01-19T09:36:51.120Z,1.05
2018-01-19T09:39:19.136Z,1.60
2018-01-19T09:41:47.151Z,1.35
2018-01-19T09:44:15.104Z,1.62
2018-01-19T09:46:43.117Z,1.23
2018-01-19T09:49:11.102Z,1.77
2018-01-19T09:51:39.129Z,1.10
2018-01-19T09:54:07.113Z,1.12
2018-01-19T09:56:35.115Z,1.20
2018-01-19T09:59:03.120Z,1.20
2018-01-19T10:01:31.111Z,1.33
2018-01-19T10:03:59.135Z,1.60
2018-01-19T10:06:27.128Z,0.95
2018-01-19T10:08:55.102Z,1.58
2018-01-19T10:11:23.107Z,1.40
2018-01-19T10:13:51.119Z,1.00
2018-01-19T10:16:19.133Z,1.23
2018-01-19T10:18:47.364Z,0.90
2018-01-19T10:21:15.364Z,1.12
2018-01-19T10:23:43.374Z,1.10
2018-01-19T10:26:11.350Z,1.10
2018-01-19T10:28:39.307Z,1.45
2018-01-19T10:31:07.319Z,1.37
2018-01-19T10:33:35.328Z,1.00
2018-01-19T10:36:03.336Z,1.30
2018-01-19T10:38:31.380Z,0.82
2018-01-19T10:40:59.369Z,0.90
2018-01-19T10:43:28.429Z,0.82
2018-01-19T10:45:56.436Z,1.20
2018-01-19T10:48:24.446Z,1.10
2018-01-19T10:50:52.439Z,1.00
2018-01-19T10:53:20.484Z,1.15
2018-01-19T10:55:48.678Z,0.70
2018-01-19T10:58:16.643Z,0.60
2018-01-19T11:00:44.689Z,1.35
2018-01-19T11:03:12.708Z,1.10
2018-01-19T11:05:40.677Z,1.17
2018-01-19T11:08:08.697Z,0.70
2018-01-19T11:10:37.077Z,0.73
2018-01-19T11:13:05.097Z,1.50
2018-01-19T11:15:33.107Z,0.98
2018-01-19T11:18:01.136Z,0.65
2018-01-19T11:20:29.105Z,0.88
2018-01-19T11:22:57.129Z,0.85
2018-01-19T11:25:25.177Z,0.82
2018-01-19T11:27:54.335Z,1.00
2018-01-19T11:30:22.372Z,1.17
2018-01-19T11:32:50.385Z,0.95
2018-01-19T11:35:18.354Z,1.00
2018-01-19T11:37:46.349Z,0.90
2018-01-19T11:40:14.345Z,0.85
2018-01-19T11:42:42.344Z,0.60
2018-01-19T11:45:10.354Z,1.17
2018-01-19T11:47:38.376Z,1.42
2018-01-19T11:50:06.384Z,0.98
2018-01-19T11:52:34.400Z,1.33
2018-01-19T11:55:02.390Z,0.70
2018-01-19T11:57:30.404Z,1.25
2018-01-19T11:59:58.418Z,0.93
2018-01-19T12:02:26.448Z,0.95
2018-01-19T12:04:54.504Z,0.95
2018-01-19T12:07:22.488Z,0.65
2018-01-19T12:09:50.498Z,1.00
2018-01-19T12:12:18.508Z,0.85
2018-01-19T12:14:46.502Z,0.90
2018-01-19T12:17:14.499Z,1.10
2018-01-19T12:19:42.476Z,0.90
2018-01-19T12:22:10.443Z,1.27
2018-01-19T12:24:38.464Z,0.73
2018-01-19T12:27:06.480Z,0.77
2018-01-19T12:29:34.479Z,1.20
2018-01-19T12:32:02.454Z,1.23
2018-01-19T12:34:30.419Z,1.23
2018-01-19T12:36:58.377Z,1.02
2018-01-19T12:39:26.397Z,0.80
2018-01-19T12:41:54.408Z,0.70
2018-01-19T12:44:22.395Z,1.00
2018-01-19T12:46:50.413Z,1.25
2018-01-19T12:49:18.376Z,1.23
2018-01-19T12:51:46.384Z,0.55
2018-01-19T12:54:14.396Z,1.15
2018-01-19T12:56:42.415Z,1.30
2018-01-19T12:59:10.401Z,1.00
2018-01-19T13:01:38.412Z,0.85
2018-01-19T13:04:06.415Z,0.90
2018-01-19T13:06:34.376Z,1.23
2018-01-19T13:09:02.340Z,1.02
2018-01-19T13:11:30.285Z,0.88
2018-01-19T13:13:58.304Z,1.25
2018-01-19T13:16:26.314Z,1.50
2018-01-19T13:18:54.282Z,1.25
2018-01-19T13:21:22.286Z,1.02
2018-01-19T13:23:50.277Z,1.08
2018-01-19T13:26:18.293Z,1.58
2018-01-19T13:28:46.301Z,1.05
2018-01-19T13:31:14.302Z,0.80
2018-01-19T13:33:42.308Z,1.02
2018-01-19T13:36:10.320Z,1.20
2018-01-19T13:38:38.335Z,1.30
2018-01-19T13:41:06.332Z,1.10
2018-01-19T13:43:34.338Z,1.10
2018-01-19T13:46:02.333Z,1.62
2018-01-19T13:48:30.332Z,1.30
2018-01-19T13:50:58.263Z,1.50
2018-01-19T13:53:26.284Z,0.85
2018-01-19T13:55:54.308Z,1.10
2018-01-19T13:58:22.288Z,1.00
2018-01-19T14:00:50.337Z,0.70
2018-01-19T14:03:18.392Z,0.95
2018-01-19T14:05:46.392Z,0.80
2018-01-19T14:08:14.395Z,0.68
2018-01-19T14:10:42.354Z,1.35
2018-01-19T14:13:11.414Z,1.08
2018-01-19T14:15:39.405Z,0.90
2018-01-19T14:18:07.424Z,0.50
2018-01-19T14:20:35.408Z,1.08
2018-01-19T14:23:03.369Z,1.00
2018-01-19T14:25:31.348Z,1.02
2018-01-19T14:27:59.369Z,0.62
2018-01-19T14:30:27.370Z,0.85
2018-01-19T14:32:55.360Z,0.70
2018-01-19T14:35:23.392Z,1.15
2018-01-19T14:37:51.378Z,1.10
2018-01-19T14:40:19.418Z,0.70
2018-01-19T14:42:47.384Z,1.83
2018-01-19T14:45:16.458Z,0.80
2018-01-19T14:47:44.432Z,0.70
2018-01-19T14:50:12.426Z,1.25
2018-01-19T14:52:40.445Z,0.70
2018-01-19T14:55:09.472Z,0.60
2018-01-19T14:57:37.464Z,0.65
2018-01-19T15:00:05.455Z,1.05
2018-01-19T15:02:33.451Z,1.15
2018-01-19T15:05:01.478Z,1.20
2018-01-19T15:07:29.448Z,0.62
2018-01-19T15:09:57.448Z,0.82
2018-01-19T15:12:25.402Z,0.90
2018-01-19T15:14:53.430Z,1.80
2018-01-19T15:17:21.401Z,0.77
2018-01-19T15:19:49.466Z,1.27
2018-01-19T15:22:17.517Z,1.17
2018-01-19T15:24:45.498Z,1.10
2018-01-19T15:27:13.490Z,1.75
2018-01-19T15:29:41.560Z,1.12
2018-01-19T15:32:11.631Z,1.02
2018-01-19T15:34:39.636Z,1.33
2018-01-19T15:37:07.630Z,1.02
2018-01-19T15:39:35.604Z,1.05
2018-01-19T15:42:03.576Z,0.95
2018-01-19T15:44:31.603Z,0.90
2018-01-19T15:46:59.605Z,1.58
2018-01-19T15:49:27.592Z,1.00
2018-01-19T15:51:55.578Z,1.20
2018-01-19T15:54:23.552Z,1.02
2018-01-19T15:56:51.576Z,1.55
2018-01-19T15:59:19.556Z,1.12
2018-01-19T16:01:47.564Z,1.85
2018-01-19T16:04:15.568Z,1.10
2018-01-19T16:06:43.550Z,1.00
2018-01-19T16:09:11.563Z,1.60
2018-01-19T16:11:39.554Z,1.12
2018-01-19T16:14:07.520Z,1.42
2018-01-19T16:16:35.535Z,0.85
2018-01-19T16:19:03.577Z,1.25
2018-01-19T16:21:31.537Z,1.12
2018-01-19T16:23:59.552Z,0.85
2018-01-19T16:26:27.545Z,1.05
2018-01-19T16:28:55.553Z,1.05
2018-01-19T16:31:23.557Z,0.70
2018-01-19T16:33:51.589Z,1.35
2018-01-19T16:36:20.537Z,0.82
2018-01-19T16:38:48.528Z,0.93
2018-01-19T16:41:16.520Z,0.90
2018-01-19T16:43:44.515Z,0.75
2018-01-19T16:46:12.479Z,1.02
2018-01-19T16:48:40.456Z,1.62
2018-01-19T16:51:08.466Z,1.75
2018-01-19T16:53:36.512Z,1.02
2018-01-19T16:56:04.479Z,2.05
2018-01-19T16:58:32.456Z,1.20
2018-01-19T17:01:00.420Z,1.70
2018-01-19T17:03:28.403Z,0.77
2018-01-19T17:05:56.430Z,1.20
2018-01-19T17:08:24.452Z,1.05
2018-01-19T17:10:52.449Z,1.08
2018-01-19T17:13:20.450Z,1.05
2018-01-19T17:15:48.506Z,1.20
2018-01-19T17:18:16.528Z,1.60
2018-01-19T17:20:44.565Z,1.62
2018-01-19T17:23:12.602Z,1.62
2018-01-19T17:25:40.714Z,1.37
2018-01-19T17:28:08.714Z,1.37
2018-01-19T17:30:36.694Z,2.20
2018-01-19T17:33:04.684Z,2.22
2018-01-19T17:35:32.674Z,2.67
2018-01-19T17:38:00.648Z,1.58
2018-01-19T17:40:28.647Z,2.20
2018-01-19T17:42:56.670Z,2.22
2018-01-19T17:45:24.661Z,1.95
2018-01-19T17:47:52.724Z,3.55
2018-01-19T17:50:20.736Z,3.00
2018-01-19T17:52:48.708Z,2.92
2018-01-19T17:55:16.718Z,2.90
2018-01-19T17:57:44.748Z,2.20
2018-01-19T18:00:12.807Z,3.10
2018-01-19T18:02:40.828Z,3.42
2018-01-19T18:05:08.808Z,3.08
2018-01-19T18:07:36.832Z,2.35
2018-01-19T18:10:04.809Z,2.28
2018-01-19T18:12:32.701Z,2.03
2018-01-19T18:15:00.624Z,2.25
2018-01-19T18:17:28.509Z,2.62
2018-01-19T18:19:56.408Z,2.25
2018-01-19T18:22:24.336Z,2.15
2018-01-19T18:24:52.239Z,2.70
2018-01-19T18:27:20.156Z,2.12
2018-01-19T18:29:48.106Z,1.85
2018-01-19T18:32:16.008Z,2.37
2018-01-19T18:34:43.909Z,2.00
2018-01-19T18:37:11.819Z,2.50
2018-01-19T18:39:39.719Z,2.47
2018-01-19T18:42:07.607Z,2.33
2018-01-19T18:44:40.239Z,2.62
2018-01-19T18:47:08.295Z,2.25
2018-01-19T18:49:36.207Z,1.95
2018-01-19T18:52:04.123Z,2.70
2018-01-19T18:54:32.027Z,2.35
2018-01-19T18:56:59.934Z,2.72
2018-01-19T18:59:29.883Z,2.92
2018-01-19T19:01:57.791Z,3.00
2018-01-19T19:04:25.691Z,2.62
2018-01-19T19:06:53.584Z,3.10
2018-01-19T19:09:21.544Z,2.85
2018-01-19T19:11:49.466Z,2.65
2018-01-19T19:14:17.486Z,2.92
2018-01-19T19:16:45.430Z,3.28
2018-01-19T19:19:13.331Z,3.33
2018-01-19T19:21:41.345Z,3.80
2018-01-19T19:24:09.258Z,3.75
2018-01-19T19:26:37.147Z,2.40
2018-01-19T19:29:06.166Z,3.35
2018-01-19T19:31:34.124Z,3.25
2018-01-19T19:34:02.244Z,3.40
2018-01-19T19:36:30.148Z,3.67
2018-01-19T19:38:58.064Z,3.30
2018-01-19T19:41:25.973Z,4.37
2018-01-19T19:43:53.908Z,3.45
2018-01-19T19:46:21.813Z,3.45
2018-01-19T19:48:49.705Z,2.97
2018-01-19T19:51:17.623Z,3.08
2018-01-19T19:53:45.602Z,3.75
2018-01-19T19:56:13.483Z,3.12
2018-01-19T19:58:41.349Z,3.30
2018-01-19T20:01:09.313Z,3.00
2018-01-19T20:03:37.217Z,3.03
2018-01-19T20:06:06.188Z,3.85
2018-01-19T20:08:34.112Z,4.40
2018-01-19T20:11:02.017Z,3.97
2018-01-19T20:13:29.957Z,3.90
2018-01-19T20:15:57.823Z,3.60
2018-01-19T20:18:25.730Z,3.60
2018-01-19T20:20:53.679Z,4.10
2018-01-19T20:23:21.565Z,4.50
2018-01-19T20:25:50.077Z,5.15
2018-01-19T20:28:17.978Z,4.28
2018-01-19T20:30:46.033Z,4.10
2018-01-19T20:33:13.955Z,4.37
2018-01-19T20:35:41.938Z,4.28
2018-01-19T20:38:09.769Z,5.32
2018-01-19T20:40:37.666Z,3.62
2018-01-19T20:43:05.592Z,3.62
2018-01-19T20:45:33.503Z,3.95
2018-01-19T20:48:01.426Z,3.20
2018-01-19T20:50:29.403Z,3.70
2018-01-19T20:52:57.316Z,3.80
2018-01-19T20:55:25.380Z,3.70
2018-01-19T20:57:53.284Z,4.37
2018-01-19T21:00:21.336Z,3.35
2018-01-19T21:02:49.230Z,4.12
2018-01-19T21:05:17.324Z,3.37
2018-01-19T21:07:45.237Z,3.72
2018-01-19T21:10:13.148Z,4.15
2018-01-19T21:12:41.054Z,3.33
2018-01-19T21:15:09.035Z,3.45
2018-01-19T21:17:36.973Z,4.80
2018-01-19T21:20:04.904Z,4.32
2018-01-19T21:22:32.789Z,3.60
2018-01-19T21:25:00.682Z,3.65
2018-01-19T21:27:28.619Z,4.30
2018-01-19T21:29:56.595Z,5.20
2018-01-19T21:32:24.528Z,4.50
2018-01-19T21:34:52.421Z,4.55
2018-01-19T21:37:20.313Z,4.10
2018-01-19T21:39:48.214Z,4.65
2018-01-19T21:42:16.147Z,3.30
2018-01-19T21:44:44.091Z,4.62
2018-01-19T21:47:12.007Z,5.30
2018-01-19T21:49:39.919Z,4.93
2018-01-19T21:52:08.961Z,4.50
2018-01-19T21:54:36.898Z,3.87
2018-01-19T21:57:04.839Z,4.03
2018-01-19T21:59:32.738Z,3.65
2018-01-19T22:02:00.639Z,3.95
2018-01-19T22:04:28.530Z,4.37
2018-01-19T22:06:56.424Z,4.03
2018-01-19T22:09:24.339Z,4.05
2018-01-19T22:11:52.225Z,4.45
2018-01-19T22:14:20.131Z,4.00
2018-01-19T22:16:48.047Z,5.75
2018-01-19T22:19:15.930Z,4.25
2018-01-19T22:21:43.825Z,3.62
2018-01-19T22:24:11.723Z,4.18
2018-01-19T22:26:39.623Z,4.53
2018-01-19T22:29:07.509Z,3.53
2018-01-19T22:31:35.439Z,3.40
2018-01-19T22:34:03.331Z,3.83
2018-01-19T22:36:31.245Z,4.37
2018-01-19T22:38:59.147Z,4.65
2018-01-19T22:41:27.025Z,5.07
2018-01-19T22:43:54.935Z,5.05
2018-01-19T22:46:22.829Z,4.50
2018-01-19T22:48:50.722Z,4.90
2018-01-19T22:51:18.628Z,3.70
2018-01-19T22:53:46.524Z,4.43
2018-01-19T22:56:14.426Z,3.30
2018-01-19T22:58:42.337Z,4.93
2018-01-19T23:01:11.268Z,4.05
2018-01-19T23:03:39.188Z,4.10
2018-01-19T23:06:07.107Z,4.70
2018-01-19T23:08:35.018Z,4.70
2018-01-19T23:11:02.935Z,3.90
2018-01-19T23:13:30.835Z,4.20
2018-01-19T23:15:58.762Z,4.57
2018-01-19T23:18:26.638Z,4.18
2018-01-19T23:20:54.509Z,3.78
2018-01-19T23:23:22.423Z,3.35
2018-01-19T23:25:50.311Z,3.75
2018-01-19T23:28:18.236Z,4.05
2018-01-19T23:30:46.176Z,3.12
2018-01-19T23:33:14.056Z,4.35
2018-01-19T23:35:42.024Z,3.62
2018-01-19T23:38:09.931Z,3.72
2018-01-19T23:40:37.844Z,4.32
2018-01-19T23:43:05.721Z,4.07
2018-01-19T23:45:33.621Z,2.97
2018-01-19T23:48:01.494Z,3.80
2018-01-19T23:50:29.383Z,3.62
2018-01-19T23:52:57.321Z,3.95
2018-01-19T23:55:26.181Z,3.20
2018-01-19T23:57:54.095Z,3.33
